METAR AND TAF INFORMATION
METAR FOR OIIE
ADDS - METARS form results

(1045 UTC 21 January 2019)
Data provider http://aviationweather.gov/metar/data/
 
METAR text: OIIE 211030Z 14003KT CAVOK 09/M07 Q1021
Conditions at: OIIE (IMAM KHOMEINI , IR) observed 1030 UTC 21 January 2019
Temperature: 9.0°C (48°F)
Dewpoint: -7.0°C (19°F) [RH = 32%]
Pressure (altimeter): 30.15 inches Hg (1021.0 mb)
Winds: from the SE (140 degrees) at 3 MPH (3 knots; 1.5 m/s)
Visibility: 6 or more miles (10+ km)
Ceiling: ceiling and visibility are OK
Clouds: unknown
Weather: no significant weather observed at this time

METAR text: OIIE 211000Z 15003KT CAVOK 08/M07 Q1022
Conditions at: OIIE (IMAM KHOMEINI , IR) observed 1000 UTC 21 January 2019
Temperature: 8.0°C (46°F)
Dewpoint: -7.0°C (19°F) [RH = 34%]
Pressure (altimeter): 30.18 inches Hg (1022.0 mb)
Winds: from the SSE (150 degrees) at 3 MPH (3 knots; 1.5 m/s)
Visibility: 6 or more miles (10+ km)
Ceiling: ceiling and visibility are OK
Clouds: unknown
Weather: no significant weather observed at this time

Forecast for: OIIE (IMAM KHOMEINI , IR)
Text: TAF OIIE 210550Z 2106/2212 27010KT CAVOK
Forecast period: 0600 UTC 21 January 2019 to 1200 UTC 22 January 2019
Forecast type: FROM: standard forecast or significant change
Winds: from the W (270 degrees) at 12 MPH (10 knots; 5.1 m/s)
Visibility: 6 or more miles 10+ km)
Ceiling: unknown
Clouds: missing
Weather: NSW  (no significant weather)

 AIRPORT MAP

 RUNWAY INFORMATION
Runway 11L Runway length 13772 ft Runway width 148 ft
Runway elevation 3305 ft Runway displaced threshold 0 ft Runway heading 109
Runway 29R Runway length 13772 ft Runway width 148 ft
Runway elevation 3256 ft Runway displaced threshold 0 ft Runway heading 289
Runway 11R Runway length 13940 ft Runway width 148 ft
Runway elevation 3305 ft Runway displaced threshold 0 ft Runway heading 109
Runway 29L Runway length 13940 ft Runway width 148 ft
Runway elevation 3257 ft Runway displaced threshold 1972 ft Runway heading 289

 AIRPORT FREQUENCIES
Type ATIS Name ATIS Frequency 127.2 MHZ
Type GND Name GND Frequency 121.6 MHZ
Type TWR Name TWR Frequency 118.7 MHZ

 AIRPORT NEAR NAVIGATION AIDS
Type VOR-DME Name Imam Khomeini Frequency 114300 KHZ



Copyright © 2007-2018 Istanbul Virtual Airlines.All rights reserved.Developed by Arca Erdik and Aykut Alp Kurt.